Time;durP1;ratioP1;P1;durP2;ratioP2;P2;SDS_P1;SDS_P2;PMS_P1;PMS_P2;Temp;Humidity;BMP_temperature;BMP_pressure;BME280_temperature;BME280_humidity;BME280_pressure;Samples;Min_cycle;Max_cycle;Signal;HPM_P1;HPM_P2
2022/12/07 00:01:20;;;;;;;19.70;12.13;;;;;;;3.71;100.00;100543.78;5034838;28;20225;-73
2022/12/07 00:03:48;;;;;;;19.55;13.15;;;;;;;3.70;100.00;100543.81;5036267;28;20218;-73
2022/12/07 00:06:16;;;;;;;18.35;12.10;;;;;;;3.78;100.00;100538.34;5035985;28;20193;-74
2022/12/07 00:08:44;;;;;;;19.23;12.48;;;;;;;3.79;100.00;100538.34;5053433;28;20205;-72
2022/12/07 00:11:13;;;;;;;21.02;12.38;;;;;;;3.73;100.00;100533.09;5051523;28;20222;-72
2022/12/07 00:16:15;;;;;;;19.58;11.73;;;;;;;3.52;100.00;100528.97;5032417;28;20218;-74
2022/12/07 00:18:43;;;;;;;18.83;11.48;;;;;;;3.53;100.00;100528.09;5032025;28;20571;-74
2022/12/07 00:21:12;;;;;;;16.05;11.05;;;;;;;3.55;100.00;100524.50;5049206;28;20224;-74
2022/12/07 00:23:39;;;;;;;20.35;12.68;;;;;;;3.52;100.00;100521.84;5033160;28;20205;-73
2022/12/07 00:26:07;;;;;;;15.32;9.70;;;;;;;3.61;100.00;100510.19;5042661;28;20193;-73
2022/12/07 00:28:34;;;;;;;16.85;11.05;;;;;;;3.56;100.00;100514.72;5041878;28;20202;-74
2022/12/07 00:31:02;;;;;;;16.38;11.20;;;;;;;3.51;100.00;100520.09;5036134;28;20206;-72
2022/12/07 00:33:30;;;;;;;18.63;12.25;;;;;;;3.52;100.00;100519.19;5038995;28;20222;-73
2022/12/07 00:35:57;;;;;;;19.27;11.93;;;;;;;3.47;100.00;100513.06;5033621;28;20229;-74
2022/12/07 00:38:24;;;;;;;16.80;11.15;;;;;;;3.41;100.00;100505.16;5040557;28;20575;-72
2022/12/07 00:40:55;;;;;;;16.30;10.88;;;;;;;3.40;100.00;100503.41;5050412;28;20273;-74
2022/12/07 00:43:22;;;;;;;19.35;11.35;;;;;;;3.48;100.00;100498.88;5049304;28;20545;-73
2022/12/07 00:45:48;;;;;;;16.00;10.65;;;;;;;3.45;100.00;100503.34;5039347;28;20221;-74
2022/12/07 00:48:15;;;;;;;20.00;12.10;;;;;;;3.42;100.00;100503.41;5032651;28;20209;-74
2022/12/07 00:50:43;;;;;;;18.88;11.70;;;;;;;3.43;100.00;100498.03;5034054;28;20212;-73
2022/12/07 00:53:09;;;;;;;20.17;12.40;;;;;;;3.41;100.00;100504.28;5034369;28;20233;-74
2022/12/07 00:55:37;;;;;;;20.88;12.90;;;;;;;3.38;100.00;100493.69;5032089;28;20226;-74
2022/12/07 00:58:04;;;;;;;20.77;12.95;;;;;;;3.41;100.00;100493.63;5032160;28;20217;-73
2022/12/07 01:00:30;;;;;;;16.95;10.70;;;;;;;3.40;100.00;100498.09;5035092;28;20675;-74
2022/12/07 01:02:57;;;;;;;20.85;12.95;;;;;;;3.43;100.00;100506.00;5033206;28;20224;-74
2022/12/07 01:05:23;;;;;;;18.75;12.15;;;;;;;3.46;100.00;100511.31;5032528;28;20226;-72
2022/12/07 01:07:51;;;;;;;15.93;10.98;;;;;;;3.53;100.00;100510.31;5031900;28;20304;-76
2022/12/07 01:10:18;;;;;;;18.98;11.65;;;;;;;3.46;100.00;100498.00;5034827;28;20197;-73
2022/12/07 01:12:45;;;;;;;20.83;12.45;;;;;;;3.47;100.00;100510.41;5025721;28;20595;-72
2022/12/07 01:15:11;;;;;;;17.20;11.63;;;;;;;3.43;100.00;100502.47;5031906;28;20334;-74
2022/12/07 01:17:38;;;;;;;21.08;11.70;;;;;;;3.52;100.00;100497.88;5032518;28;20197;-73
2022/12/07 01:20:07;;;;;;;19.10;12.05;;;;;;;3.49;100.00;100487.28;5040615;28;20198;-74
2022/12/07 01:22:37;;;;;;;19.25;11.65;;;;;;;3.32;100.00;100490.22;5040860;28;20912;-75
2022/12/07 01:25:06;;;;;;;25.25;11.70;;;;;;;3.38;100.00;100483.03;5035686;28;20659;-73
2022/12/07 01:27:33;;;;;;;18.45;11.35;;;;;;;3.22;100.00;100485.03;5043426;28;20197;-75
2022/12/07 01:30:00;;;;;;;20.88;12.27;;;;;;;3.26;100.00;100484.09;5035610;28;20209;-73
2022/12/07 01:32:27;;;;;;;21.90;13.52;;;;;;;3.25;100.00;100483.19;5035892;28;20210;-73
2022/12/07 01:34:53;;;;;;;17.70;11.60;;;;;;;3.25;100.00;100482.31;5035787;28;20587;-74
2022/12/07 01:37:20;;;;;;;19.20;12.90;;;;;;;3.21;100.00;100485.91;5040958;28;20208;-73
2022/12/07 01:39:49;;;;;;;21.20;11.70;;;;;;;3.21;100.00;100488.59;5034967;28;20292;-74
2022/12/07 01:42:19;;;;;;;20.63;11.77;;;;;;;3.22;100.00;100485.91;5039262;28;20212;-72
2022/12/07 01:45:22;;;;;;;20.77;12.50;;;;;;;3.20;100.00;100485.06;5048736;28;20227;-75
2022/12/07 01:47:53;;;;;;;20.38;11.30;;;;;;;3.27;100.00;100499.16;5030738;28;20198;-74
2022/12/07 01:50:20;;;;;;;20.95;11.32;;;;;;;3.30;100.00;100493.78;5041668;28;20205;-74
2022/12/07 01:52:50;;;;;;;20.00;12.32;;;;;;;3.30;100.00;100486.69;5041641;28;20232;-74
2022/12/07 01:55:17;;;;;;;17.42;11.38;;;;;;;3.32;100.00;100489.31;5049002;28;20289;-73
2022/12/07 01:57:49;;;;;;;15.45;11.13;;;;;;;3.30;100.00;100481.38;5038788;28;20202;-74
2022/12/07 02:00:17;;;;;;;19.48;11.00;;;;;;;3.31;100.00;100483.13;5042377;28;20282;-74
2022/12/07 02:02:48;;;;;;;16.80;10.95;;;;;;;3.24;100.00;100489.44;5039750;28;20206;-75
2022/12/07 02:05:15;;;;;;;21.77;12.70;;;;;;;3.24;100.00;100480.56;5043725;28;20216;-73
2022/12/07 02:07:42;;;;;;;18.73;10.90;;;;;;;3.31;100.00;100476.91;5041629;28;20241;-73
2022/12/07 02:10:16;;;;;;;14.32;9.40;;;;;;;3.29;100.00;100468.06;5041131;28;20292;-73
2022/12/07 02:12:45;;;;;;;18.83;12.02;;;;;;;3.29;100.00;100473.41;5043204;28;20284;-74
2022/12/07 02:15:13;;;;;;;20.13;10.52;;;;;;;3.26;100.00;100463.69;5040277;28;20252;-75
2022/12/07 02:17:50;;;;;;;17.25;11.18;;;;;;;3.19;100.00;100466.44;5037554;28;20261;-72
2022/12/07 02:20:28;;;;;;;19.67;11.82;;;;;;;3.31;100.00;100460.94;5046343;28;20197;-73
2022/12/07 02:23:19;;;;;;;17.75;11.00;;;;;;;3.30;100.00;100465.41;5031574;28;20200;-75
2022/12/07 02:26:03;;;;;;;16.45;11.07;;;;;;;3.34;100.00;100460.88;5031256;28;20684;-74
2022/12/07 02:28:35;;;;;;;15.85;10.38;;;;;;;3.30;100.00;100459.16;5038162;28;20238;-75
2022/12/07 02:31:09;;;;;;;17.15;10.40;;;;;;;3.29;100.00;100454.75;5038217;28;20200;-73
2022/12/07 02:33:42;;;;;;;17.15;10.70;;;;;;;3.33;100.00;100465.34;5039580;28;20336;-73
2022/12/07 02:36:15;;;;;;;13.95;9.57;;;;;;;3.29;100.00;100465.41;5033032;28;20212;-72
2022/12/07 02:38:52;;;;;;;18.15;10.35;;;;;;;3.28;100.00;100469.88;5030705;28;20204;-75
2022/12/07 02:41:22;;;;;;;16.73;9.80;;;;;;;3.24;100.00;100459.28;5038958;28;20281;-74
2022/12/07 02:43:54;;;;;;;18.00;9.55;;;;;;;3.29;100.00;100455.63;5034647;28;20192;-75
2022/12/07 02:46:26;;;;;;;15.60;10.02;;;;;;;3.35;100.00;100452.03;5030710;28;20624;-74
2022/12/07 02:48:55;;;;;;;14.05;9.32;;;;;;;3.16;100.00;100448.72;5036797;28;20194;-74
2022/12/07 02:51:22;;;;;;;17.02;9.80;;;;;;;3.24;100.00;100453.97;5041992;28;20233;-73
2022/12/07 02:53:49;;;;;;;16.10;9.70;;;;;;;3.16;100.00;100448.72;5033178;28;20225;-75
2022/12/07 02:56:26;;;;;;;15.30;9.65;;;;;;;3.32;100.00;100449.38;5039029;28;20201;-76
2022/12/07 02:59:07;;;;;;;15.90;10.93;;;;;;;3.38;100.00;100446.63;5044099;28;20202;-73
2022/12/07 03:01:49;;;;;;;16.85;10.07;;;;;;;3.33;100.00;100437.84;5047398;28;20200;-74
2022/12/07 03:04:29;;;;;;;16.75;9.70;;;;;;;3.34;100.00;100445.78;5035998;28;20220;-74
2022/12/07 03:07:04;;;;;;;15.32;9.25;;;;;;;3.41;100.00;100440.38;5047020;28;20268;-74
2022/12/07 03:09:36;;;;;;;16.10;9.43;;;;;;;3.41;100.00;100433.28;5047638;28;20267;-72
2022/12/07 03:12:11;;;;;;;14.75;9.98;;;;;;;3.41;100.00;100435.06;5041260;28;20288;-74
2022/12/07 03:14:42;;;;;;;15.70;9.82;;;;;;;3.35;100.00;100438.72;5039093;28;20321;-73
2022/12/07 03:17:14;;;;;;;17.05;10.23;;;;;;;3.41;100.00;100435.94;5046876;28;20261;-75
2022/12/07 03:19:43;;;;;;;14.85;8.95;;;;;;;3.44;100.00;100437.69;5025852;28;20280;-73
2022/12/07 03:22:12;;;;;;;17.98;9.68;;;;;;;3.48;100.00;100436.72;5045050;28;20215;-74
2022/12/07 03:24:44;;;;;;;13.82;10.10;;;;;;;3.45;100.00;100432.31;5039822;28;20217;-75
2022/12/07 03:27:14;;;;;;;15.40;9.15;;;;;;;3.49;100.00;100436.69;5038366;28;20194;-75
2022/12/07 03:29:46;;;;;;;12.45;8.65;;;;;;;3.38;100.00;100436.00;5040909;28;20240;-75
2022/12/07 03:32:20;;;;;;;15.52;9.35;;;;;;;3.42;100.00;100427.06;5037116;28;20205;-73
2022/12/07 03:34:54;;;;;;;13.30;7.85;;;;;;;3.42;100.00;100431.50;5037967;28;20333;-74
2022/12/07 03:37:27;;;;;;;14.82;9.02;;;;;;;3.41;100.00;100437.72;5044184;28;20212;-75
2022/12/07 03:40:01;;;;;;;14.65;8.85;;;;;;;3.41;100.00;100438.59;5040547;28;20240;-75
2022/12/07 03:42:27;;;;;;;13.60;8.95;;;;;;;3.44;100.00;100429.72;5037779;28;20201;-73
2022/12/07 03:44:54;;;;;;;17.38;10.20;;;;;;;3.37;100.00;100428.91;5039195;28;20220;-75
2022/12/07 03:47:29;;;;;;;12.73;8.30;;;;;;;3.42;100.00;100416.41;5035408;28;20220;-75
2022/12/07 03:50:01;;;;;;;12.13;8.70;;;;;;;3.41;100.00;100419.97;5037467;28;20194;-75
2022/12/07 03:52:33;;;;;;;11.25;7.38;;;;;;;3.45;100.00;100421.66;5037117;28;20284;-72
2022/12/07 03:55:05;;;;;;;11.38;7.13;;;;;;;3.43;100.00;100414.63;5037034;28;20594;-74
2022/12/07 03:57:34;;;;;;;14.15;8.60;;;;;;;3.41;100.00;100419.97;5033517;28;20208;-74
2022/12/07 04:00:01;;;;;;;15.70;8.00;;;;;;;3.43;100.00;100412.81;5034934;28;20204;-74
2022/12/07 04:02:29;;;;;;;12.73;8.55;;;;;;;3.46;100.00;100418.13;5035029;28;20240;-74
2022/12/07 04:04:56;;;;;;;10.98;7.03;;;;;;;3.46;100.00;100412.78;5044054;28;20589;-75
2022/12/07 04:07:23;;;;;;;10.88;7.88;;;;;;;3.45;100.00;100418.13;5037921;28;20206;-75
2022/12/07 04:09:49;;;;;;;12.32;8.15;;;;;;;3.65;100.00;100423.16;5040444;28;20216;-72
2022/12/07 04:12:16;;;;;;;12.18;7.30;;;;;;;3.54;100.00;100420.66;5036518;28;20198;-74
2022/12/07 04:14:42;;;;;;;14.05;8.40;;;;;;;3.59;100.00;100412.59;5037713;28;20231;-75
2022/12/07 04:17:10;;;;;;;12.07;7.75;;;;;;;3.58;100.00;100406.38;5038415;28;20221;-74
2022/12/07 04:19:38;;;;;;;11.00;6.25;;;;;;;3.64;100.00;100408.06;5036772;28;20202;-75
2022/12/07 04:22:05;;;;;;;12.68;8.27;;;;;;;3.62;100.00;100412.53;5038702;28;20570;-76
2022/12/07 04:24:32;;;;;;;11.10;7.50;;;;;;;3.64;100.00;100410.72;5040963;28;20300;-74
2022/12/07 04:26:58;;;;;;;10.20;6.70;;;;;;;3.66;100.00;100416.91;5038481;28;20204;-74
2022/12/07 04:29:26;;;;;;;10.15;7.10;;;;;;;3.68;100.00;100417.75;5036978;28;20198;-73
2022/12/07 04:31:53;;;;;;;11.80;7.53;;;;;;;3.65;100.00;100412.50;5036509;28;20202;-75
2022/12/07 04:34:20;;;;;;;12.00;7.75;;;;;;;3.64;100.00;100416.03;5038430;28;20249;-72
2022/12/07 04:36:49;;;;;;;12.07;8.15;;;;;;;3.58;100.00;100417.03;5034411;28;20205;-73
2022/12/07 04:39:20;;;;;;;12.60;9.20;;;;;;;3.67;100.00;100416.00;5041721;28;20209;-73
2022/12/07 04:41:47;;;;;;;12.60;7.30;;;;;;;3.74;100.00;100412.34;5038750;28;20289;-73
2022/12/07 04:44:14;;;;;;;12.82;7.50;;;;;;;3.80;100.00;100411.31;5035271;28;20220;-74
2022/12/07 04:46:42;;;;;;;21.35;15.50;;;;;;;3.70;100.00;100414.16;5037697;28;20201;-74
2022/12/07 04:49:08;;;;;;;10.88;7.20;;;;;;;3.73;100.00;100411.47;5030356;28;20202;-73
2022/12/07 04:51:35;;;;;;;13.77;7.57;;;;;;;3.67;100.00;100408.03;5036219;28;20288;-73
2022/12/07 04:54:03;;;;;;;11.40;7.38;;;;;;;3.74;100.00;100412.34;5040627;28;20227;-75
2022/12/07 04:56:29;;;;;;;12.43;8.07;;;;;;;3.72;100.00;100414.13;5043114;28;20209;-73
2022/12/07 04:58:56;;;;;;;13.10;7.78;;;;;;;3.80;100.00;100404.25;5038026;28;20669;-75
2022/12/07 05:01:23;;;;;;;11.10;6.80;;;;;;;3.75;100.00;100411.41;5037886;28;20571;-74
2022/12/07 05:03:51;;;;;;;11.48;7.05;;;;;;;3.67;100.00;100402.69;5037462;28;20193;-73
2022/12/07 05:06:17;;;;;;;13.15;7.75;;;;;;;3.72;100.00;100407.03;5042221;28;20197;-74
2022/12/07 05:08:44;;;;;;;14.35;7.80;;;;;;;3.67;100.00;100411.56;5029588;28;20205;-75
2022/12/07 05:11:37;;;;;;;12.57;8.18;;;;;;;3.74;100.00;100409.66;5032374;28;20198;-73
2022/12/07 05:14:00;;;;;;;11.40;7.50;;;;;;;3.78;100.00;100403.38;5035224;28;20272;-74
2022/12/07 05:16:27;;;;;;;13.23;7.63;;;;;;;3.75;100.00;100404.31;5040996;28;20194;-73
2022/12/07 05:18:54;;;;;;;13.88;8.20;;;;;;;3.85;100.00;100405.03;5040527;28;20571;-74
2022/12/07 05:21:20;;;;;;;17.08;9.02;;;;;;;3.85;100.00;100398.84;5037585;28;20194;-72
2022/12/07 05:23:47;;;;;;;12.85;8.30;;;;;;;3.75;100.00;100403.41;5040220;28;20198;-74
2022/12/07 05:26:15;;;;;;;15.88;9.07;;;;;;;3.77;100.00;100414.94;5040590;28;20288;-74
2022/12/07 05:28:41;;;;;;;13.65;7.95;;;;;;;3.73;100.00;100406.13;5031463;28;20197;-74
2022/12/07 05:31:08;;;;;;;11.63;7.47;;;;;;;3.76;100.00;100398.06;5026112;28;20720;-74
2022/12/07 05:33:35;;;;;;;15.90;7.90;;;;;;;3.72;100.00;100403.47;5032690;28;20681;-73
2022/12/07 05:36:05;;;;;;;11.48;7.20;;;;;;;3.70;100.00;100403.50;5040019;28;20222;-74
2022/12/07 05:38:32;;;;;;;10.10;7.05;;;;;;;3.80;100.00;100401.56;5040596;28;20663;-74
2022/12/07 05:41:01;;;;;;;12.57;7.72;;;;;;;3.80;100.00;100398.91;5037439;28;20208;-74
2022/12/07 05:43:28;;;;;;;16.77;9.85;;;;;;;3.83;100.00;100392.66;5043816;28;20205;-74
2022/12/07 05:45:54;;;;;;;12.50;8.02;;;;;;;3.71;100.00;100402.63;5038660;28;20235;-75
2022/12/07 05:48:21;;;;;;;13.00;8.13;;;;;;;3.72;100.00;100399.03;5037842;28;20625;-74
2022/12/07 05:50:48;;;;;;;14.77;8.65;;;;;;;3.73;100.00;100399.91;5045294;28;20557;-74
2022/12/07 05:53:15;;;;;;;12.70;8.38;;;;;;;3.77;100.00;100401.59;5038259;28;20194;-73
2022/12/07 05:55:42;;;;;;;13.82;8.10;;;;;;;3.78;100.00;100406.06;5036573;28;20221;-74
2022/12/07 06:00:55;;;;;;;16.40;10.18;;;;;;;3.88;100.00;100404.97;5036111;28;20209;-73
2022/12/07 06:03:21;;;;;;;15.40;9.75;;;;;;;3.92;100.00;100406.66;5038934;28;20204;-74
2022/12/07 06:05:48;;;;;;;11.82;8.43;;;;;;;3.84;100.00;100403.25;5029343;28;20214;-74
2022/12/07 06:08:15;;;;;;;13.00;8.70;;;;;;;3.81;100.00;100407.78;5030916;28;20577;-73
2022/12/07 06:10:42;;;;;;;14.20;8.77;;;;;;;3.91;100.00;100398.69;5033868;28;20355;-74
2022/12/07 06:13:08;;;;;;;11.43;7.75;;;;;;;3.87;100.00;100405.00;5040331;28;20206;-74
2022/12/07 06:15:36;;;;;;;12.97;8.10;;;;;;;3.91;100.00;100404.94;5041239;28;20220;-76
2022/12/07 06:18:04;;;;;;;11.77;8.55;;;;;;;3.92;100.00;100408.47;5039702;28;20198;-76
2022/12/07 06:20:31;;;;;;;13.07;8.68;;;;;;;3.95;100.00;100403.06;5054286;28;20200;-75
2022/12/07 06:22:57;;;;;;;13.50;9.18;;;;;;;4.03;100.00;100403.81;5043163;28;20307;-74
2022/12/07 06:25:24;;;;;;;12.90;8.52;;;;;;;4.08;100.00;100399.28;5051790;28;20228;-76
2022/12/07 06:27:50;;;;;;;11.75;8.85;;;;;;;4.11;100.00;100406.34;5043015;28;20202;-75
2022/12/07 06:30:17;;;;;;;14.13;8.82;;;;;;;4.19;100.00;100407.06;5054059;28;20227;-75
2022/12/07 06:32:43;;;;;;;15.30;9.80;;;;;;;4.15;100.00;100408.03;5041473;28;20193;-73
2022/12/07 06:35:13;;;;;;;14.70;9.00;;;;;;;4.21;100.00;100407.94;5036889;28;20971;-78
2022/12/07 06:37:39;;;;;;;15.13;9.75;;;;;;;4.22;100.00;100409.66;5036072;28;20198;-76
2022/12/07 06:40:07;;;;;;;13.43;9.80;;;;;;;4.18;100.00;100410.63;5035151;28;20205;-74
2022/12/07 06:42:34;;;;;;;13.68;8.57;;;;;;;4.21;100.00;100407.94;5035380;28;20361;-75
2022/12/07 06:45:00;;;;;;;14.48;9.00;;;;;;;4.27;100.00;100409.59;5036464;28;20684;-77
2022/12/07 06:47:27;;;;;;;13.90;9.48;;;;;;;4.29;100.00;100400.66;5036184;28;20676;-75
2022/12/07 06:49:53;;;;;;;13.85;9.13;;;;;;;4.28;100.00;100401.56;5035913;28;20272;-73
2022/12/07 06:52:21;;;;;;;14.35;9.20;;;;;;;4.24;100.00;100401.66;5036748;28;20265;-75
2022/12/07 06:54:48;;;;;;;14.27;8.88;;;;;;;4.20;100.00;100397.28;5033723;28;20221;-75
2022/12/07 06:57:14;;;;;;;14.98;8.90;;;;;;;4.13;100.00;100410.72;5044539;28;20671;-76
2022/12/07 06:59:41;;;;;;;15.10;8.93;;;;;;;4.09;100.00;100408.16;5048225;28;20189;-76
2022/12/07 07:02:11;;;;;;;15.48;9.43;;;;;;;4.13;100.00;100421.38;5045209;28;20233;-74
2022/12/07 07:04:38;;;;;;;21.05;11.85;;;;;;;4.00;100.00;100413.66;5035534;28;20754;-75
2022/12/07 07:07:04;;;;;;;15.57;8.85;;;;;;;4.02;100.00;100422.50;5039674;28;20202;-75
2022/12/07 07:09:32;;;;;;;18.50;8.98;;;;;;;4.05;100.00;100423.34;5034298;28;20209;-76
2022/12/07 07:11:59;;;;;;;18.02;9.85;;;;;;;4.00;100.00;100417.19;5045158;28;20208;-77
2022/12/07 07:14:25;;;;;;;14.65;10.43;;;;;;;4.07;100.00;100423.28;5046862;28;20240;-77
2022/12/07 07:16:52;;;;;;;15.40;9.43;;;;;;;4.07;100.00;100424.19;5045592;28;20293;-74
2022/12/07 07:19:18;;;;;;;17.92;9.98;;;;;;;4.07;100.00;100424.19;5041885;28;20680;-75
2022/12/07 07:21:45;;;;;;;13.55;8.25;;;;;;;4.15;100.00;100432.91;5048137;28;20198;-74
2022/12/07 07:24:11;;;;;;;15.52;10.05;;;;;;;4.18;100.00;100432.88;5022705;28;20706;-75
2022/12/07 07:26:39;;;;;;;15.23;9.98;;;;;;;4.24;100.00;100433.66;5029028;28;20194;-75
2022/12/07 07:29:06;;;;;;;17.65;9.93;;;;;;;4.08;100.00;100441.91;5048195;28;20206;-77
2022/12/07 07:31:35;;;;;;;14.75;9.73;;;;;;;4.18;100.00;100439.97;5062036;28;20184;-76
2022/12/07 07:34:01;;;;;;;17.15;9.32;;;;;;;4.24;100.00;100444.31;5062427;28;20219;-78
2022/12/07 07:36:28;;;;;;;13.88;10.02;;;;;;;4.32;100.00;100443.25;5060619;28;20262;-79
2022/12/07 07:38:54;;;;;;;16.42;10.13;;;;;;;4.35;100.00;100451.19;5058765;28;20257;-76
2022/12/07 07:41:21;;;;;;;15.35;9.57;;;;;;;4.40;100.00;100445.78;5057009;28;20270;-76
2022/12/07 07:43:49;;;;;;;16.50;10.02;;;;;;;4.37;100.00;100445.84;5072639;28;20258;-78
2022/12/07 07:46:15;;;;;;;16.98;9.80;;;;;;;4.32;100.00;100437.94;5058124;28;20223;-76
2022/12/07 07:48:42;;;;;;;16.10;10.32;;;;;;;4.23;100.00;100443.44;5053434;28;20207;-78
2022/12/07 07:51:09;;;;;;;16.33;10.88;;;;;;;4.24;100.00;100442.50;5076045;28;20262;-76
2022/12/07 07:53:36;;;;;;;14.85;9.45;;;;;;;4.27;100.00;100444.25;5065744;28;20203;-77
2022/12/07 07:56:02;;;;;;;14.98;9.98;;;;;;;4.32;100.00;100445.94;5064419;28;20226;-75
2022/12/07 07:58:29;;;;;;;13.80;8.98;;;;;;;4.35;100.00;100456.53;5067636;28;20205;-75
2022/12/07 08:00:57;;;;;;;21.23;11.15;;;;;;;4.23;100.00;100455.88;5055019;28;20199;-72
2022/12/07 08:03:23;;;;;;;15.68;9.45;;;;;;;4.18;100.00;100437.28;5046526;28;20274;-74
2022/12/07 08:05:50;;;;;;;13.07;8.35;;;;;;;4.24;100.00;100439.84;5050695;28;20683;-74
2022/12/07 08:08:16;;;;;;;18.48;9.88;;;;;;;4.17;100.00;100451.53;5049165;28;20233;-76
2022/12/07 08:10:43;;;;;;;17.00;9.93;;;;;;;4.13;100.00;100441.84;5043628;28;20287;-73
2022/12/07 08:13:13;;;;;;;14.30;9.20;;;;;;;4.00;100.00;100446.50;5038906;28;20296;-74
2022/12/07 08:15:41;;;;;;;13.73;9.55;;;;;;;3.98;100.00;100440.34;5036844;28;20218;-74
2022/12/07 08:18:10;;;;;;;16.73;11.18;;;;;;;3.88;100.00;100439.59;5042337;28;20200;-76
2022/12/07 08:20:38;;;;;;;14.95;9.65;;;;;;;3.95;100.00;100438.59;5018525;28;20198;-75
2022/12/07 08:23:05;;;;;;;16.55;10.27;;;;;;;3.99;100.00;100450.09;5017911;28;20206;-75
2022/12/07 08:25:32;;;;;;;18.27;10.77;;;;;;;3.96;100.00;100450.16;5033085;28;20684;-74
2022/12/07 08:28:00;;;;;;;15.90;9.98;;;;;;;4.05;100.00;100447.31;5041239;28;20212;-73
2022/12/07 08:30:29;;;;;;;15.27;10.55;;;;;;;4.20;100.00;100447.94;5044985;28;20213;-75
2022/12/07 08:32:56;;;;;;;17.73;10.68;;;;;;;4.65;100.00;100458.63;5039186;28;20198;-74
2022/12/07 08:35:25;;;;;;;17.58;10.18;;;;;;;5.66;100.00;100447.50;5047489;28;20222;-75
2022/12/07 08:37:52;;;;;;;15.20;9.27;;;;;;;6.46;100.00;100444.50;5047335;28;20227;-75
2022/12/07 08:40:20;;;;;;;12.18;8.45;;;;;;;6.95;100.00;100439.56;5041978;28;20287;-75
2022/12/07 08:42:49;;;;;;;12.85;9.23;;;;;;;6.48;100.00;100439.13;5030861;28;20206;-74
2022/12/07 08:45:17;;;;;;;13.25;9.57;;;;;;;6.41;100.00;100438.41;5034387;28;20734;-74
2022/12/07 08:47:48;;;;;;;10.70;8.07;;;;;;;6.18;100.00;100440.84;5043665;28;20203;-74
2022/12/07 08:50:15;;;;;;;10.80;7.38;;;;;;;6.46;100.00;100439.16;5037248;28;20210;-79
2022/12/07 08:52:43;;;;;;;14.98;8.18;;;;;;;6.22;100.00;100442.53;5042119;28;20201;-74
2022/12/07 08:55:12;;;;;;;11.23;8.30;;;;;;;6.19;100.00;100438.13;5037580;28;20229;-74
2022/12/07 08:57:40;;;;;;;12.77;8.10;;;;;;;5.92;100.00;100442.34;5044818;28;20194;-74
2022/12/07 09:00:07;;;;;;;10.43;7.38;;;;;;;5.75;100.00;100444.59;5048254;28;20211;-77
2022/12/07 09:02:34;;;;;;;12.90;8.23;;;;;;;5.51;100.00;100444.25;5054392;28;20278;-74
2022/12/07 09:05:00;;;;;;;11.48;7.45;;;;;;;5.39;100.00;100440.09;5051853;28;20286;-73
2022/12/07 09:07:28;;;;;;;14.27;7.93;;;;;;;5.37;100.00;100451.72;5046043;28;20292;-74
2022/12/07 09:09:55;;;;;;;11.60;7.57;;;;;;;5.34;100.00;100442.00;5044153;28;20220;-75
2022/12/07 09:12:22;;;;;;;12.50;7.80;;;;;;;5.54;100.00;100446.88;5052805;28;20203;-77
2022/12/07 09:14:49;;;;;;;13.57;7.68;;;;;;;6.21;100.00;100443.44;5055452;28;20247;-78
2022/12/07 09:17:15;;;;;;;10.93;7.40;;;;;;;7.32;100.00;100444.66;5055383;28;20276;-77
2022/12/07 09:19:42;;;;;;;10.80;7.47;;;;;;;8.36;100.00;100428.69;5042708;28;20296;-74
2022/12/07 09:22:09;;;;;;;10.25;7.00;;;;;;;9.58;100.00;100441.09;5044408;28;20204;-78
2022/12/07 09:24:36;;;;;;;8.82;6.93;;;;;;;9.20;100.00;100443.47;5024536;28;20276;-76
2022/12/07 09:27:03;;;;;;;7.07;6.22;;;;;;;9.65;100.00;100428.28;5037783;28;20202;-76
2022/12/07 09:29:30;;;;;;;9.30;6.60;;;;;;;9.55;100.00;100433.16;5042099;28;20209;-76
2022/12/07 09:31:57;;;;;;;8.48;6.70;;;;;;;9.49;100.00;100441.47;5037215;28;20341;-74
2022/12/07 09:34:23;;;;;;;8.52;6.50;;;;;;;9.84;100.00;100439.16;5035838;28;20232;-76
2022/12/07 09:36:50;;;;;;;6.60;5.20;;;;;;;10.17;100.00;100443.09;5045846;28;20245;-77
2022/12/07 09:39:16;;;;;;;6.10;5.50;;;;;;;10.59;100.00;100438.63;5034709;28;20227;-75
2022/12/07 09:41:45;;;;;;;6.25;4.60;;;;;;;11.25;100.00;100451.75;5035922;28;20660;-75
2022/12/07 09:44:19;;;;;;;8.68;6.10;;;;;;;11.85;99.12;100449.72;5035400;28;20228;-74
2022/12/07 09:46:46;;;;;;;7.07;5.85;;;;;;;10.98;100.00;100440.44;5038790;28;20664;-74
2022/12/07 09:49:17;;;;;;;10.40;5.88;;;;;;;10.31;100.00;100439.84;5041407;28;20209;-75
2022/12/07 09:51:44;;;;;;;8.63;6.05;;;;;;;8.52;100.00;100445.16;5045213;28;20655;-76
2022/12/07 09:54:13;;;;;;;7.97;5.40;;;;;;;8.47;100.00;100437.25;5045854;28;20799;-77
2022/12/07 09:56:40;;;;;;;9.23;6.55;;;;;;;8.03;100.00;100437.00;5043642;28;20218;-75
2022/12/07 09:59:07;;;;;;;8.27;6.20;;;;;;;7.70;100.00;100437.19;5042835;28;20292;-74
2022/12/07 10:01:35;;;;;;;8.52;6.15;;;;;;;7.36;100.00;100429.38;5040203;28;20659;-77
2022/12/07 10:04:10;;;;;;;7.78;6.40;;;;;;;7.55;100.00;100426.97;5045558;28;20218;-76
2022/12/07 10:06:36;;;;;;;10.65;6.55;;;;;;;8.99;100.00;100418.34;5039128;28;20658;-75
2022/12/07 10:09:03;;;;;;;9.15;6.13;;;;;;;10.78;100.00;100414.41;5047268;28;20663;-75
2022/12/07 10:11:30;;;;;;;8.60;6.20;;;;;;;11.21;100.00;100415.09;5050497;28;20228;-75
2022/12/07 10:14:12;;;;;;;7.65;5.53;;;;;;;11.30;100.00;100424.56;5034626;28;20285;-75
2022/12/07 10:16:42;;;;;;;9.18;6.18;;;;;;;12.08;95.31;100418.03;5042704;28;20229;-76
2022/12/07 10:19:24;;;;;;;8.10;5.57;;;;;;;12.28;87.31;100415.16;5042660;28;20198;-74
2022/12/07 10:22:02;;;;;;;7.35;5.97;;;;;;;11.83;91.55;100419.25;5035055;28;20190;-74
2022/12/07 10:24:29;;;;;;;8.63;5.65;;;;;;;10.03;100.00;100410.53;5037076;28;20305;-76
2022/12/07 10:26:56;;;;;;;7.28;5.75;;;;;;;9.22;100.00;100414.75;5042581;28;20678;-76
2022/12/07 10:29:25;;;;;;;7.93;6.28;;;;;;;9.02;100.00;100415.53;5037752;28;20194;-76
2022/12/07 10:31:56;;;;;;;12.05;6.60;;;;;;;8.60;100.00;100416.22;5039778;28;20200;-74
2022/12/07 10:34:25;;;;;;;8.23;6.25;;;;;;;8.96;100.00;100405.03;5044751;28;20308;-76
2022/12/07 10:36:53;;;;;;;6.85;5.70;;;;;;;9.10;100.00;100410.72;5045935;28;20357;-75
2022/12/07 10:39:23;;;;;;;9.38;5.88;;;;;;;9.34;100.00;100397.28;5039273;28;20280;-75
2022/12/07 10:41:57;;;;;;;11.10;6.65;;;;;;;9.38;100.00;100399.78;5038850;28;20289;-75
2022/12/07 10:44:26;;;;;;;9.60;6.90;;;;;;;9.46;100.00;100398.59;5053273;28;20228;-74
2022/12/07 10:47:14;;;;;;;6.70;5.00;;;;;;;8.82;100.00;100400.19;5043421;28;20249;-76
2022/12/07 10:50:17;;;;;;;6.35;4.43;;;;;;;9.45;100.00;100392.34;5050000;28;20197;-74
2022/12/07 10:52:57;;;;;;;7.50;5.60;;;;;;;12.27;100.00;100391.81;5047471;28;20232;-75
2022/12/07 10:55:34;;;;;;;9.82;6.28;;;;;;;13.10;85.51;100376.50;5035682;28;20251;-73
2022/12/07 10:58:32;;;;;;;7.90;6.55;;;;;;;13.80;77.19;100380.69;5045108;28;20196;-75
2022/12/07 11:01:06;;;;;;;8.10;5.80;;;;;;;13.97;72.41;100381.44;5041193;28;20655;-76
2022/12/07 11:03:47;;;;;;;8.38;6.05;;;;;;;12.88;77.21;100376.81;5048015;28;20190;-75
2022/12/07 11:06:24;;;;;;;8.40;6.07;;;;;;;11.30;90.08;100382.31;5034487;28;20288;-76
2022/12/07 11:09:30;;;;;;;7.85;6.60;;;;;;;11.78;91.00;100369.13;5044338;28;20197;-74
2022/12/07 11:12:03;;;;;;;14.15;6.30;;;;;;;11.98;90.05;100369.03;5044911;28;20206;-75
2022/12/07 11:14:39;;;;;;;6.32;5.20;;;;;;;12.03;84.07;100363.38;5039705;28;20229;-75
2022/12/07 11:17:10;;;;;;;7.63;4.35;;;;;;;13.02;75.16;100359.81;5054017;28;20205;-76
2022/12/07 11:20:02;;;;;;;5.90;4.85;;;;;;;12.72;71.14;100363.28;5037103;28;20288;-75
2022/12/07 11:22:37;;;;;;;7.03;5.90;;;;;;;10.99;88.26;100362.22;5048661;28;20237;-76
2022/12/07 11:25:18;;;;;;;9.18;6.28;;;;;;;10.49;92.35;100361.88;5024222;28;20228;-75
2022/12/07 11:27:53;;;;;;;8.85;4.60;;;;;;;9.67;100.00;100348.41;5027914;28;20205;-76
2022/12/07 11:30:21;;;;;;;5.95;4.65;;;;;;;9.27;100.00;100350.06;5044418;28;20192;-75
2022/12/07 11:33:05;;;;;;;8.50;4.97;;;;;;;8.82;100.00;100350.97;5043899;28;20195;-75